sensor_id;sensor_type;location;lat;lon;timestamp;P1;durP1;ratioP1;P2;durP2;ratioP2
23406;SDS011;11876;53.438;18.942;2022-09-09T00:09:39;6.95;;;2.85;;
23406;SDS011;11876;53.438;18.942;2022-09-09T00:20:30;6.95;;;3.40;;
23406;SDS011;11876;53.438;18.942;2022-09-09T00:25:40;4.18;;;2.83;;
23406;SDS011;11876;53.438;18.942;2022-09-09T00:31:08;5.50;;;3.63;;
23406;SDS011;11876;53.438;18.942;2022-09-09T00:36:14;7.22;;;2.92;;
23406;SDS011;11876;53.438;18.942;2022-09-09T00:58:09;4.93;;;2.88;;
23406;SDS011;11876;53.438;18.942;2022-09-09T01:03:17;6.32;;;3.53;;
23406;SDS011;11876;53.438;18.942;2022-09-09T01:13:52;11.70;;;3.72;;
23406;SDS011;11876;53.438;18.942;2022-09-09T01:19:03;7.75;;;3.78;;
23406;SDS011;11876;53.438;18.942;2022-09-09T01:29:33;8.02;;;4.30;;
23406;SDS011;11876;53.438;18.942;2022-09-09T01:34:38;6.20;;;4.65;;
23406;SDS011;11876;53.438;18.942;2022-09-09T01:39:41;8.88;;;5.32;;
23406;SDS011;11876;53.438;18.942;2022-09-09T01:44:48;10.07;;;5.97;;
23406;SDS011;11876;53.438;18.942;2022-09-09T01:49:50;7.55;;;5.57;;
23406;SDS011;11876;53.438;18.942;2022-09-09T01:54:57;9.68;;;4.55;;
23406;SDS011;11876;53.438;18.942;2022-09-09T02:00:07;11.02;;;5.60;;
23406;SDS011;11876;53.438;18.942;2022-09-09T02:05:27;7.00;;;5.40;;
23406;SDS011;11876;53.438;18.942;2022-09-09T02:16:22;9.98;;;7.05;;
23406;SDS011;11876;53.438;18.942;2022-09-09T02:21:31;10.73;;;6.33;;
23406;SDS011;11876;53.438;18.942;2022-09-09T02:26:38;9.45;;;6.93;;
23406;SDS011;11876;53.438;18.942;2022-09-09T02:31:44;11.18;;;7.00;;
23406;SDS011;11876;53.438;18.942;2022-09-09T02:36:53;11.88;;;7.75;;
23406;SDS011;11876;53.438;18.942;2022-09-09T02:41:56;11.38;;;8.38;;
23406;SDS011;11876;53.438;18.942;2022-09-09T02:52:18;11.27;;;9.32;;
23406;SDS011;11876;53.438;18.942;2022-09-09T02:57:27;7.75;;;6.63;;
23406;SDS011;11876;53.438;18.942;2022-09-09T03:02:32;11.50;;;8.52;;
23406;SDS011;11876;53.438;18.942;2022-09-09T03:07:39;11.13;;;8.07;;
23406;SDS011;11876;53.438;18.942;2022-09-09T03:12:42;13.60;;;9.70;;
23406;SDS011;11876;53.438;18.942;2022-09-09T03:17:46;15.45;;;10.38;;
23406;SDS011;11876;53.438;18.942;2022-09-09T03:22:49;11.93;;;8.98;;
23406;SDS011;11876;53.438;18.942;2022-09-09T03:27:53;11.88;;;8.77;;
23406;SDS011;11876;53.438;18.942;2022-09-09T03:32:58;12.77;;;10.70;;
23406;SDS011;11876;53.438;18.942;2022-09-09T03:38:05;10.27;;;7.88;;
23406;SDS011;11876;53.438;18.942;2022-09-09T03:43:09;16.15;;;10.73;;
23406;SDS011;11876;53.438;18.942;2022-09-09T03:48:12;13.07;;;11.57;;
23406;SDS011;11876;53.438;18.942;2022-09-09T03:53:17;12.43;;;10.00;;
23406;SDS011;11876;53.438;18.942;2022-09-09T03:58:23;14.70;;;10.18;;
23406;SDS011;11876;53.438;18.942;2022-09-09T04:03:32;12.95;;;10.32;;
23406;SDS011;11876;53.438;18.942;2022-09-09T04:08:35;13.35;;;8.68;;
23406;SDS011;11876;53.438;18.942;2022-09-09T04:13:39;11.73;;;9.35;;
23406;SDS011;11876;53.438;18.942;2022-09-09T04:18:45;11.13;;;9.23;;
23406;SDS011;11876;53.438;18.942;2022-09-09T04:23:50;14.85;;;9.98;;
23406;SDS011;11876;53.438;18.942;2022-09-09T04:28:53;15.25;;;10.23;;
23406;SDS011;11876;53.438;18.942;2022-09-09T04:33:57;9.82;;;8.75;;
23406;SDS011;11876;53.438;18.942;2022-09-09T04:39:04;8.88;;;8.00;;
23406;SDS011;11876;53.438;18.942;2022-09-09T04:44:06;11.73;;;9.07;;
23406;SDS011;11876;53.438;18.942;2022-09-09T04:49:09;11.38;;;8.43;;
23406;SDS011;11876;53.438;18.942;2022-09-09T04:54:17;11.15;;;7.35;;
23406;SDS011;11876;53.438;18.942;2022-09-09T04:59:20;9.60;;;8.13;;
23406;SDS011;11876;53.438;18.942;2022-09-09T05:04:27;10.20;;;8.85;;
23406;SDS011;11876;53.438;18.942;2022-09-09T05:09:30;10.20;;;8.27;;
23406;SDS011;11876;53.438;18.942;2022-09-09T05:14:34;9.63;;;8.70;;
23406;SDS011;11876;53.438;18.942;2022-09-09T05:19:40;9.95;;;8.07;;
23406;SDS011;11876;53.438;18.942;2022-09-09T05:24:42;11.57;;;9.90;;
23406;SDS011;11876;53.438;18.942;2022-09-09T05:29:46;14.00;;;11.25;;
23406;SDS011;11876;53.438;18.942;2022-09-09T05:34:49;11.05;;;9.93;;
23406;SDS011;11876;53.438;18.942;2022-09-09T05:39:53;13.40;;;9.35;;
23406;SDS011;11876;53.438;18.942;2022-09-09T05:44:55;15.45;;;11.80;;
23406;SDS011;11876;53.438;18.942;2022-09-09T05:50:00;25.33;;;16.55;;
23406;SDS011;11876;53.438;18.942;2022-09-09T05:55:03;19.92;;;14.60;;
23406;SDS011;11876;53.438;18.942;2022-09-09T06:00:06;16.38;;;10.85;;
23406;SDS011;11876;53.438;18.942;2022-09-09T06:05:14;8.90;;;7.40;;
23406;SDS011;11876;53.438;18.942;2022-09-09T06:10:18;8.13;;;7.32;;
23406;SDS011;11876;53.438;18.942;2022-09-09T06:15:21;8.57;;;7.70;;
23406;SDS011;11876;53.438;18.942;2022-09-09T06:20:23;10.05;;;7.85;;
23406;SDS011;11876;53.438;18.942;2022-09-09T06:25:26;10.77;;;9.60;;
23406;SDS011;11876;53.438;18.942;2022-09-09T06:30:29;8.50;;;7.60;;
23406;SDS011;11876;53.438;18.942;2022-09-09T06:35:32;9.13;;;8.15;;
23406;SDS011;11876;53.438;18.942;2022-09-09T06:40:34;11.30;;;9.35;;
23406;SDS011;11876;53.438;18.942;2022-09-09T06:45:37;11.68;;;8.93;;
23406;SDS011;11876;53.438;18.942;2022-09-09T06:50:39;8.98;;;8.00;;
23406;SDS011;11876;53.438;18.942;2022-09-09T06:55:42;9.25;;;8.35;;
23406;SDS011;11876;53.438;18.942;2022-09-09T07:00:47;9.30;;;8.35;;
23406;SDS011;11876;53.438;18.942;2022-09-09T07:05:57;9.77;;;8.80;;
23406;SDS011;11876;53.438;18.942;2022-09-09T07:11:03;8.63;;;7.82;;
23406;SDS011;11876;53.438;18.942;2022-09-09T07:16:16;10.23;;;9.23;;
23406;SDS011;11876;53.438;18.942;2022-09-09T07:21:19;9.38;;;8.32;;
23406;SDS011;11876;53.438;18.942;2022-09-09T07:26:24;9.10;;;7.93;;
23406;SDS011;11876;53.438;18.942;2022-09-09T07:31:30;10.68;;;8.75;;
23406;SDS011;11876;53.438;18.942;2022-09-09T07:36:36;10.02;;;9.02;;
23406;SDS011;11876;53.438;18.942;2022-09-09T07:41:44;8.40;;;6.77;;
23406;SDS011;11876;53.438;18.942;2022-09-09T07:46:50;9.75;;;8.18;;
23406;SDS011;11876;53.438;18.942;2022-09-09T07:51:57;10.13;;;8.50;;
23406;SDS011;11876;53.438;18.942;2022-09-09T07:57:01;10.75;;;9.55;;
23406;SDS011;11876;53.438;18.942;2022-09-09T08:02:08;10.63;;;8.43;;
23406;SDS011;11876;53.438;18.942;2022-09-09T08:07:12;11.63;;;9.27;;
23406;SDS011;11876;53.438;18.942;2022-09-09T08:12:25;10.10;;;9.05;;
23406;SDS011;11876;53.438;18.942;2022-09-09T08:17:27;11.05;;;9.10;;
23406;SDS011;11876;53.438;18.942;2022-09-09T08:22:32;10.70;;;8.57;;
23406;SDS011;11876;53.438;18.942;2022-09-09T08:27:35;11.23;;;9.38;;
23406;SDS011;11876;53.438;18.942;2022-09-09T08:32:38;8.93;;;8.02;;
23406;SDS011;11876;53.438;18.942;2022-09-09T08:37:46;8.18;;;7.47;;
23406;SDS011;11876;53.438;18.942;2022-09-09T08:42:52;8.57;;;7.80;;
23406;SDS011;11876;53.438;18.942;2022-09-09T08:58:27;9.30;;;8.35;;
23406;SDS011;11876;53.438;18.942;2022-09-09T09:03:37;11.13;;;7.72;;
23406;SDS011;11876;53.438;18.942;2022-09-09T09:09:04;10.25;;;8.10;;
23406;SDS011;11876;53.438;18.942;2022-09-09T09:19:23;15.75;;;9.02;;
23406;SDS011;11876;53.438;18.942;2022-09-09T09:29:37;9.00;;;8.10;;
23406;SDS011;11876;53.438;18.942;2022-09-09T09:35:02;11.15;;;8.18;;
23406;SDS011;11876;53.438;18.942;2022-09-09T09:40:16;8.15;;;7.35;;
23406;SDS011;11876;53.438;18.942;2022-09-09T09:50:32;9.45;;;7.47;;
23406;SDS011;11876;53.438;18.942;2022-09-09T09:55:44;9.13;;;8.25;;
23406;SDS011;11876;53.438;18.942;2022-09-09T10:00:52;7.95;;;7.03;;
23406;SDS011;11876;53.438;18.942;2022-09-09T10:05:59;8.43;;;7.40;;
23406;SDS011;11876;53.438;18.942;2022-09-09T10:26:37;11.30;;;9.93;;
23406;SDS011;11876;53.438;18.942;2022-09-09T10:42:48;11.52;;;7.82;;
23406;SDS011;11876;53.438;18.942;2022-09-09T10:47:59;13.73;;;7.45;;
23406;SDS011;11876;53.438;18.942;2022-09-09T10:53:25;10.10;;;8.80;;
23406;SDS011;11876;53.438;18.942;2022-09-09T11:04:19;11.88;;;8.60;;
23406;SDS011;11876;53.438;18.942;2022-09-09T11:09:26;15.00;;;9.35;;
23406;SDS011;11876;53.438;18.942;2022-09-09T11:14:32;15.55;;;10.88;;
23406;SDS011;11876;53.438;18.942;2022-09-09T11:19:42;12.80;;;10.20;;
23406;SDS011;11876;53.438;18.942;2022-09-09T11:41:16;14.88;;;10.35;;
23406;SDS011;11876;53.438;18.942;2022-09-09T11:46:22;17.60;;;11.07;;
23406;SDS011;11876;53.438;18.942;2022-09-09T11:51:35;15.55;;;10.32;;
23406;SDS011;11876;53.438;18.942;2022-09-09T11:56:44;18.70;;;11.02;;
23406;SDS011;11876;53.438;18.942;2022-09-09T12:01:50;18.60;;;12.63;;
23406;SDS011;11876;53.438;18.942;2022-09-09T12:07:46;20.40;;;12.10;;
23406;SDS011;11876;53.438;18.942;2022-09-09T12:12:25;18.95;;;11.23;;
23406;SDS011;11876;53.438;18.942;2022-09-09T12:17:36;22.10;;;14.60;;
23406;SDS011;11876;53.438;18.942;2022-09-09T12:28:04;20.90;;;12.38;;
23406;SDS011;11876;53.438;18.942;2022-09-09T12:33:12;17.25;;;12.25;;
23406;SDS011;11876;53.438;18.942;2022-09-09T12:43:48;25.90;;;14.68;;
23406;SDS011;11876;53.438;18.942;2022-09-09T12:48:51;26.23;;;15.40;;
23406;SDS011;11876;53.438;18.942;2022-09-09T12:53:55;21.55;;;14.13;;
23406;SDS011;11876;53.438;18.942;2022-09-09T12:58:58;23.83;;;13.05;;
23406;SDS011;11876;53.438;18.942;2022-09-09T13:04:02;19.80;;;13.13;;
23406;SDS011;11876;53.438;18.942;2022-09-09T13:09:07;22.42;;;14.65;;
23406;SDS011;11876;53.438;18.942;2022-09-09T13:14:18;26.90;;;15.93;;
23406;SDS011;11876;53.438;18.942;2022-09-09T13:19:22;33.58;;;18.33;;
23406;SDS011;11876;53.438;18.942;2022-09-09T13:24:30;27.17;;;16.83;;
23406;SDS011;11876;53.438;18.942;2022-09-09T13:29:34;35.55;;;20.25;;
23406;SDS011;11876;53.438;18.942;2022-09-09T13:34:38;27.85;;;17.70;;
23406;SDS011;11876;53.438;18.942;2022-09-09T13:39:50;32.50;;;19.65;;
23406;SDS011;11876;53.438;18.942;2022-09-09T13:44:57;31.15;;;18.25;;
23406;SDS011;11876;53.438;18.942;2022-09-09T13:55:32;37.67;;;20.90;;
23406;SDS011;11876;53.438;18.942;2022-09-09T14:00:34;25.33;;;17.98;;
23406;SDS011;11876;53.438;18.942;2022-09-09T14:05:38;28.00;;;18.10;;
23406;SDS011;11876;53.438;18.942;2022-09-09T14:10:40;29.88;;;20.02;;
23406;SDS011;11876;53.438;18.942;2022-09-09T14:15:42;33.38;;;19.98;;
23406;SDS011;11876;53.438;18.942;2022-09-09T14:20:45;31.30;;;19.58;;
23406;SDS011;11876;53.438;18.942;2022-09-09T14:25:47;28.75;;;19.38;;
23406;SDS011;11876;53.438;18.942;2022-09-09T14:30:50;30.13;;;20.52;;
23406;SDS011;11876;53.438;18.942;2022-09-09T14:35:59;37.08;;;22.30;;
23406;SDS011;11876;53.438;18.942;2022-09-09T14:41:03;29.75;;;20.48;;
23406;SDS011;11876;53.438;18.942;2022-09-09T14:46:06;34.47;;;24.23;;
23406;SDS011;11876;53.438;18.942;2022-09-09T14:51:20;35.30;;;24.27;;
23406;SDS011;11876;53.438;18.942;2022-09-09T14:56:25;37.95;;;26.77;;
23406;SDS011;11876;53.438;18.942;2022-09-09T15:01:30;35.15;;;25.88;;
23406;SDS011;11876;53.438;18.942;2022-09-09T15:06:34;34.67;;;25.38;;
23406;SDS011;11876;53.438;18.942;2022-09-09T15:11:40;48.97;;;43.70;;
23406;SDS011;11876;53.438;18.942;2022-09-09T15:16:42;40.58;;;31.88;;
23406;SDS011;11876;53.438;18.942;2022-09-09T15:21:45;44.33;;;28.75;;
23406;SDS011;11876;53.438;18.942;2022-09-09T15:26:47;37.95;;;24.80;;
23406;SDS011;11876;53.438;18.942;2022-09-09T15:31:49;33.75;;;25.20;;
23406;SDS011;11876;53.438;18.942;2022-09-09T15:36:52;34.70;;;25.27;;
23406;SDS011;11876;53.438;18.942;2022-09-09T15:41:56;41.10;;;31.17;;
23406;SDS011;11876;53.438;18.942;2022-09-09T15:46:59;56.30;;;37.45;;
23406;SDS011;11876;53.438;18.942;2022-09-09T15:52:01;60.47;;;33.53;;
23406;SDS011;11876;53.438;18.942;2022-09-09T15:57:05;38.72;;;28.20;;
23406;SDS011;11876;53.438;18.942;2022-09-09T16:02:10;32.92;;;24.10;;
23406;SDS011;11876;53.438;18.942;2022-09-09T16:07:12;35.33;;;26.38;;
23406;SDS011;11876;53.438;18.942;2022-09-09T16:12:14;128.27;;;101.10;;
23406;SDS011;11876;53.438;18.942;2022-09-09T16:17:17;55.60;;;30.60;;
23406;SDS011;11876;53.438;18.942;2022-09-09T16:22:21;40.63;;;29.55;;
23406;SDS011;11876;53.438;18.942;2022-09-09T16:27:25;41.65;;;30.40;;
23406;SDS011;11876;53.438;18.942;2022-09-09T16:32:27;45.60;;;33.42;;
23406;SDS011;11876;53.438;18.942;2022-09-09T16:37:29;54.35;;;37.28;;
23406;SDS011;11876;53.438;18.942;2022-09-09T16:42:35;44.20;;;35.08;;
23406;SDS011;11876;53.438;18.942;2022-09-09T16:47:40;55.13;;;38.88;;
23406;SDS011;11876;53.438;18.942;2022-09-09T16:52:42;57.42;;;37.88;;
23406;SDS011;11876;53.438;18.942;2022-09-09T16:57:44;109.13;;;55.95;;
23406;SDS011;11876;53.438;18.942;2022-09-09T17:02:47;128.07;;;82.18;;
23406;SDS011;11876;53.438;18.942;2022-09-09T17:07:49;48.97;;;38.33;;
23406;SDS011;11876;53.438;18.942;2022-09-09T17:12:52;45.78;;;35.45;;
23406;SDS011;11876;53.438;18.942;2022-09-09T17:17:55;47.35;;;34.88;;
23406;SDS011;11876;53.438;18.942;2022-09-09T17:22:57;50.83;;;38.17;;
23406;SDS011;11876;53.438;18.942;2022-09-09T17:27:59;55.15;;;38.40;;
23406;SDS011;11876;53.438;18.942;2022-09-09T17:33:05;49.75;;;36.65;;
23406;SDS011;11876;53.438;18.942;2022-09-09T17:38:08;45.35;;;33.20;;
23406;SDS011;11876;53.438;18.942;2022-09-09T17:43:10;49.83;;;35.63;;
23406;SDS011;11876;53.438;18.942;2022-09-09T17:48:14;48.17;;;35.13;;
23406;SDS011;11876;53.438;18.942;2022-09-09T17:53:16;46.28;;;33.55;;
23406;SDS011;11876;53.438;18.942;2022-09-09T17:58:18;52.45;;;37.45;;
23406;SDS011;11876;53.438;18.942;2022-09-09T18:03:22;49.53;;;35.47;;
23406;SDS011;11876;53.438;18.942;2022-09-09T18:08:26;42.45;;;31.23;;
23406;SDS011;11876;53.438;18.942;2022-09-09T18:13:36;48.10;;;34.58;;
23406;SDS011;11876;53.438;18.942;2022-09-09T18:18:39;46.47;;;32.55;;
23406;SDS011;11876;53.438;18.942;2022-09-09T18:23:41;41.92;;;31.85;;
23406;SDS011;11876;53.438;18.942;2022-09-09T18:28:48;44.55;;;33.55;;
23406;SDS011;11876;53.438;18.942;2022-09-09T18:33:52;42.65;;;31.63;;
23406;SDS011;11876;53.438;18.942;2022-09-09T18:38:55;45.58;;;32.65;;
23406;SDS011;11876;53.438;18.942;2022-09-09T18:44:00;44.97;;;31.90;;
23406;SDS011;11876;53.438;18.942;2022-09-09T18:49:08;40.25;;;30.52;;
23406;SDS011;11876;53.438;18.942;2022-09-09T18:54:13;42.13;;;29.08;;
23406;SDS011;11876;53.438;18.942;2022-09-09T18:59:21;41.30;;;31.13;;
23406;SDS011;11876;53.438;18.942;2022-09-09T19:04:24;39.38;;;29.08;;
23406;SDS011;11876;53.438;18.942;2022-09-09T19:09:29;35.85;;;26.75;;
23406;SDS011;11876;53.438;18.942;2022-09-09T19:14:33;37.88;;;25.98;;
23406;SDS011;11876;53.438;18.942;2022-09-09T19:19:35;37.67;;;26.48;;
23406;SDS011;11876;53.438;18.942;2022-09-09T19:24:38;43.15;;;30.00;;
23406;SDS011;11876;53.438;18.942;2022-09-09T19:29:41;35.38;;;26.35;;
23406;SDS011;11876;53.438;18.942;2022-09-09T19:34:44;30.85;;;24.23;;
23406;SDS011;11876;53.438;18.942;2022-09-09T19:39:47;32.75;;;25.45;;
23406;SDS011;11876;53.438;18.942;2022-09-09T19:44:51;34.22;;;26.10;;
23406;SDS011;11876;53.438;18.942;2022-09-09T19:49:53;33.72;;;26.55;;
23406;SDS011;11876;53.438;18.942;2022-09-09T19:54:56;36.30;;;27.63;;
23406;SDS011;11876;53.438;18.942;2022-09-09T19:59:58;87.13;;;29.75;;
23406;SDS011;11876;53.438;18.942;2022-09-09T20:05:01;39.03;;;26.13;;
23406;SDS011;11876;53.438;18.942;2022-09-09T20:10:03;36.38;;;25.90;;
23406;SDS011;11876;53.438;18.942;2022-09-09T20:15:07;39.10;;;26.67;;
23406;SDS011;11876;53.438;18.942;2022-09-09T20:20:10;41.28;;;28.67;;
23406;SDS011;11876;53.438;18.942;2022-09-09T20:25:13;41.42;;;28.42;;
23406;SDS011;11876;53.438;18.942;2022-09-09T20:30:16;40.65;;;28.48;;
23406;SDS011;11876;53.438;18.942;2022-09-09T20:35:18;38.05;;;27.02;;
23406;SDS011;11876;53.438;18.942;2022-09-09T20:40:21;36.80;;;27.08;;
23406;SDS011;11876;53.438;18.942;2022-09-09T20:45:23;31.23;;;23.73;;
23406;SDS011;11876;53.438;18.942;2022-09-09T20:50:25;31.13;;;25.33;;
23406;SDS011;11876;53.438;18.942;2022-09-09T20:55:31;29.20;;;24.05;;
23406;SDS011;11876;53.438;18.942;2022-09-09T21:00:34;27.88;;;23.08;;
23406;SDS011;11876;53.438;18.942;2022-09-09T21:05:37;31.55;;;23.15;;
23406;SDS011;11876;53.438;18.942;2022-09-09T21:10:42;43.47;;;24.88;;
23406;SDS011;11876;53.438;18.942;2022-09-09T21:15:47;33.95;;;23.35;;
23406;SDS011;11876;53.438;18.942;2022-09-09T21:20:51;33.83;;;24.90;;
23406;SDS011;11876;53.438;18.942;2022-09-09T21:25:54;34.00;;;24.77;;
23406;SDS011;11876;53.438;18.942;2022-09-09T21:30:57;32.08;;;24.63;;
23406;SDS011;11876;53.438;18.942;2022-09-09T21:36:06;34.72;;;24.92;;
23406;SDS011;11876;53.438;18.942;2022-09-09T21:41:10;33.47;;;24.63;;
23406;SDS011;11876;53.438;18.942;2022-09-09T21:46:14;39.90;;;28.10;;
23406;SDS011;11876;53.438;18.942;2022-09-09T21:51:18;36.83;;;26.02;;
23406;SDS011;11876;53.438;18.942;2022-09-09T21:56:20;32.33;;;24.40;;
23406;SDS011;11876;53.438;18.942;2022-09-09T22:01:24;38.80;;;26.35;;
23406;SDS011;11876;53.438;18.942;2022-09-09T22:06:27;38.58;;;25.52;;
23406;SDS011;11876;53.438;18.942;2022-09-09T22:11:29;37.72;;;25.83;;
23406;SDS011;11876;53.438;18.942;2022-09-09T22:16:32;38.97;;;24.95;;
23406;SDS011;11876;53.438;18.942;2022-09-09T22:21:35;35.53;;;23.58;;
23406;SDS011;11876;53.438;18.942;2022-09-09T22:26:37;32.40;;;23.98;;
23406;SDS011;11876;53.438;18.942;2022-09-09T22:31:40;30.60;;;20.63;;
23406;SDS011;11876;53.438;18.942;2022-09-09T22:36:43;29.73;;;20.90;;
23406;SDS011;11876;53.438;18.942;2022-09-09T22:41:46;28.35;;;19.95;;
23406;SDS011;11876;53.438;18.942;2022-09-09T22:46:49;27.85;;;19.35;;
23406;SDS011;11876;53.438;18.942;2022-09-09T22:51:52;28.48;;;18.52;;
23406;SDS011;11876;53.438;18.942;2022-09-09T22:56:54;22.02;;;15.20;;
23406;SDS011;11876;53.438;18.942;2022-09-09T23:01:56;23.88;;;18.17;;
23406;SDS011;11876;53.438;18.942;2022-09-09T23:06:59;24.80;;;19.10;;
23406;SDS011;11876;53.438;18.942;2022-09-09T23:12:01;25.00;;;19.17;;
23406;SDS011;11876;53.438;18.942;2022-09-09T23:17:04;29.65;;;21.83;;
23406;SDS011;11876;53.438;18.942;2022-09-09T23:22:09;26.00;;;20.52;;
23406;SDS011;11876;53.438;18.942;2022-09-09T23:27:12;24.13;;;17.67;;
23406;SDS011;11876;53.438;18.942;2022-09-09T23:32:14;23.30;;;18.33;;
23406;SDS011;11876;53.438;18.942;2022-09-09T23:37:16;25.40;;;16.77;;
23406;SDS011;11876;53.438;18.942;2022-09-09T23:42:19;20.83;;;16.00;;
23406;SDS011;11876;53.438;18.942;2022-09-09T23:47:21;16.60;;;13.48;;
23406;SDS011;11876;53.438;18.942;2022-09-09T23:52:24;22.75;;;17.10;;
23406;SDS011;11876;53.438;18.942;2022-09-09T23:57:27;23.65;;;17.85;;
